Big Bear Station Historical Data
Daily Summary for March 3, 2018 Units:  English    Metric   Both
Next Day »
Daily Weekly Monthly Yearly Custom
  High: Low: Average:
Temperature: 33.4 °F 24.4 °F 29.9 °F
Dew Point: 30.7 °F 23.2 °F 28.2 °F
Humidity: 97% 88% 93%
Wind Speed: 9.4mph 0.0mph 4.1mph
Wind Gust: -999.0mph - -
Wind- - SW
Pressure: 23.37 in 23.31 in -
Precipitation: 0.10 in    
Historical Graphs
 
 
Tabular Data for March 3, 2018
Time Temperature Dew Point Pressure Wind Wind Speed Wind Gust Humidity Rainfall Rate (Hourly)
07:50 30.4 °F 28.9 °F 23.35 in WNW 2.2 mph -999.0 mph 94% 0 in
08:05 30.6 °F 29.1 °F 23.35 in West 3.7 mph -999.0 mph 94% 0 in
08:21 30.9 °F 29.4 °F 23.35 in SE 3.2 mph -999.0 mph 94% 0 in
08:36 31.8 °F 30.3 °F 23.35 in Calm   -999.0 mph 94% 0 in
08:47 32.2 °F 30.4 °F 23.35 in North 2.7 mph -999.0 mph 93% 0 in
09:02 32.4 °F 30.3 °F 23.35 in SE 5.8 mph -999.0 mph 92% 0 in
09:18 32.4 °F 30.3 °F 23.35 in SSW 1.7 mph -999.0 mph 92% 0 in
09:33 31.8 °F 30.0 °F 23.35 in South 4.2 mph -999.0 mph 93% 0 in
09:48 32.5 °F 30.7 °F 23.35 in NNW 1.7 mph -999.0 mph 93% 0 in
10:04 32.4 °F 30.6 °F 23.35 in NW 2.2 mph -999.0 mph 93% 0 in
10:19 31.8 °F 30.0 °F 23.35 in NW 5.8 mph -999.0 mph 93% 0 in
10:34 30.6 °F 28.6 °F 23.36 in North 6.3 mph -999.0 mph 92% 0 in
10:49 31.5 °F 29.4 °F 23.37 in NNW 4.2 mph -999.0 mph 92% 0 in
11:05 31.8 °F 29.2 °F 23.36 in SSE 4.2 mph -999.0 mph 90% 0 in
11:15 32.5 °F 29.9 °F 23.36 in WSW 1.7 mph -999.0 mph 90% 0 in
11:30 32.5 °F 29.9 °F 23.35 in South 1.1 mph -999.0 mph 90% 0 in
11:45 32.2 °F 29.6 °F 23.35 in East 5.8 mph -999.0 mph 90% 0 in
12:00 32.0 °F 29.1 °F 23.35 in South 4.2 mph -999.0 mph 89% 0 in
12:16 32.7 °F 29.5 °F 23.35 in NW 4.2 mph -999.0 mph 88% 0 in
12:31 33.1 °F 29.9 °F 23.34 in SSW 5.8 mph -999.0 mph 88% 0 in
12:46 33.4 °F 30.5 °F 23.33 in WNW 5.8 mph -999.0 mph 89% 0 in
13:02 32.7 °F 29.8 °F 23.32 in SSW 3.2 mph -999.0 mph 89% 0 in
13:17 32.5 °F 29.3 °F 23.32 in SSE 3.7 mph -999.0 mph 88% 0 in
13:32 32.5 °F 29.9 °F 23.32 in West 3.7 mph -999.0 mph 90% 0 in
13:48 32.5 °F 30.2 °F 23.32 in South 4.2 mph -999.0 mph 91% 0 in
14:04 32.2 °F 30.4 °F 23.32 in ESE 6.3 mph -999.0 mph 93% 0 in
14:19 31.8 °F 29.7 °F 23.32 in NE 3.7 mph -999.0 mph 92% 0 in
14:37 31.3 °F 29.2 °F 23.32 in South 4.2 mph -999.0 mph 92% 0 in
14:52 31.6 °F 29.3 °F 23.32 in SW 4.7 mph -999.0 mph 91% 0 in
15:07 31.8 °F 29.2 °F 23.32 in NNW 7.3 mph -999.0 mph 90% 0 in
15:22 31.1 °F 28.8 °F 23.32 in SSE 8.3 mph -999.0 mph 91% 0 in
15:38 30.9 °F 28.9 °F 23.32 in South 4.2 mph -999.0 mph 92% 0 in
15:53 30.4 °F 28.1 °F 23.32 in North 3.2 mph -999.0 mph 91% 0 in
16:08 30.2 °F 28.4 °F 23.32 in West 2.7 mph -999.0 mph 93% 0 in
16:23 30.0 °F 28.2 °F 23.31 in NW 8.3 mph -999.0 mph 93% 0 in
16:38 29.8 °F 27.5 °F 23.32 in ESE 5.8 mph -999.0 mph 91% 0 in
16:54 29.5 °F 28.2 °F 23.32 in SSW 3.7 mph -999.0 mph 95% 0 in
17:09 29.8 °F 28.0 °F 23.31 in North 2.2 mph -999.0 mph 93% 0 in
17:24 29.5 °F 28.0 °F 23.32 in South 7.8 mph -999.0 mph 94% 0 in
17:39 29.5 °F 28.2 °F 23.32 in NW 5.3 mph -999.0 mph 95% 0 in
17:55 29.1 °F 28.1 °F 23.32 in WSW 2.7 mph -999.0 mph 96% 0 in
18:10 28.6 °F 27.6 °F 23.32 in ESE 1.1 mph -999.0 mph 96% 0 in
18:26 28.6 °F 27.9 °F 23.32 in South 1.7 mph -999.0 mph 97% 0 in
18:41 28.6 °F 27.9 °F 23.32 in NNW 7.8 mph -999.0 mph 97% 0 in
18:57 28.4 °F 27.7 °F 23.32 in SSE 3.2 mph -999.0 mph 97% 0 in
19:12 28.0 °F 27.3 °F 23.32 in South 4.2 mph -999.0 mph 97% 0 in
19:28 28.0 °F 27.3 °F 23.32 in Calm   -999.0 mph 97% 0 in
19:43 28.0 °F 27.3 °F 23.31 in NNW 3.7 mph -999.0 mph 97% 0 in
19:58 28.0 °F 27.3 °F 23.31 in Calm   -999.0 mph 97% 0 in
20:13 27.9 °F 27.2 °F 23.32 in SSE 7.3 mph -999.0 mph 97% 0 in
20:28 27.5 °F 26.5 °F 23.32 in SW 3.7 mph -999.0 mph 96% 0 in
20:44 27.3 °F 26.3 °F 23.32 in ESE 4.2 mph -999.0 mph 96% 0 in
20:59 27.0 °F 26.0 °F 23.32 in South 6.8 mph -999.0 mph 96% 0 in
21:15 26.6 °F 25.6 °F 23.32 in West 3.2 mph -999.0 mph 96% 0 in
21:30 26.4 °F 25.4 °F 23.32 in ESE 3.7 mph -999.0 mph 96% 0 in
21:45 26.2 °F 25.5 °F 23.33 in West 6.3 mph -999.0 mph 97% 0 in
22:00 26.4 °F 25.7 °F 23.32 in North 4.7 mph -999.0 mph 97% 0 in
22:16 26.6 °F 25.6 °F 23.32 in SW 2.7 mph -999.0 mph 96% 0 in
22:31 26.4 °F 25.4 °F 23.32 in NW 3.7 mph -999.0 mph 96% 0 in
22:46 26.1 °F 25.1 °F 23.32 in NW 9.4 mph -999.0 mph 96% 0 in
23:02 25.9 °F 24.9 °F 23.33 in SW 3.7 mph -999.0 mph 96% 0 in
23:17 25.9 °F 24.9 °F 23.33 in SSW 3.7 mph -999.0 mph 96% 0 in
23:33 25.5 °F 24.3 °F 23.33 in SSE 2.7 mph -999.0 mph 95% 0 in
23:49 24.4 °F 23.2 °F 23.34 in SSE 5.8 mph -999.0 mph 95% 0 in
Big Bear CA Weather